Mengshan, China
Current Conditions -  °F | °C
As of 12:00 PM on Saturday 25 Oct 2014 (Local Time) from ZGKL Reporting Station
Haze Haze  
Wind Chill: 79°   Ceiling: Unl
Heat Index: 80°   Visibility: 3mi
Dew Point: 57°   Wind: 4mph
Humidity: 47%   Direction: NA
Pressure: 30.06"   Gusts: NA
Location:  24.2°N, 110.52°E
Report Text: ZGKL 250400Z VRB02MPS 5000 HZ NSC 26/14 Q1018 NOSIG
Loading
Personal Weather Stations






























Interactive Weather Map
Tropical Storm Tracking
New forecast layout! Learn more

10-Day Weather Forecast

Advertisements
Track Severe Weather on mobile